createdAt,value
2019-06-08T00:00:42.385Z,98217.23
2019-06-08T00:03:13.190Z,98211.19
2019-06-08T00:05:44.520Z,98208.42
2019-06-08T00:08:14.916Z,98206.54
2019-06-08T00:10:45.120Z,98204.73
2019-06-08T00:13:15.306Z,98205.71
2019-06-08T00:15:45.540Z,98202.09
2019-06-08T00:18:15.755Z,98205.31
2019-06-08T00:20:46.052Z,98207.75
2019-06-08T00:23:16.259Z,98213.98
2019-06-08T00:25:46.454Z,98221.89
2019-06-08T00:28:16.695Z,98222.87
2019-06-08T00:30:46.872Z,98234.89
2019-06-08T00:33:17.425Z,98229.84
2019-06-08T00:35:48.698Z,98233.75
2019-06-08T00:38:18.909Z,98239.06
2019-06-08T00:40:49.125Z,98231.02
2019-06-08T00:43:19.316Z,98221.42
2019-06-08T00:45:49.534Z,98226.32
2019-06-08T00:48:21.049Z,98227.77
2019-06-08T00:50:51.314Z,98227.09
2019-06-08T00:53:23.251Z,98233.27
2019-06-08T00:55:53.492Z,98236.05
2019-06-08T00:58:24.253Z,98237.19
2019-06-08T01:00:54.674Z,98235.38
2019-06-08T01:03:25.829Z,98246.22
2019-06-08T01:05:56.084Z,98245.72
2019-06-08T01:08:27.369Z,98242.13
2019-06-08T01:10:57.712Z,98243.20
2019-06-08T01:13:28.986Z,98246.34
2019-06-08T01:15:59.267Z,98243.08
2019-06-08T01:18:29.482Z,98243.08
2019-06-08T01:20:59.676Z,98251.98
2019-06-08T01:23:29.895Z,98246.22
2019-06-08T01:26:00.114Z,98256.43
2019-06-08T01:28:30.356Z,98259.06
2019-06-08T01:31:00.555Z,98256.66
2019-06-08T01:33:30.901Z,98258.98
2019-06-08T01:36:01.166Z,98261.61
2019-06-08T01:38:31.384Z,98265.59
2019-06-08T01:41:01.584Z,98252.78
2019-06-08T01:43:31.870Z,98250.82
2019-06-08T01:46:02.102Z,98253.12
2019-06-08T01:48:32.404Z,98250.64
2019-06-08T01:51:02.632Z,98254.77
2019-06-08T01:53:33.036Z,98257.54
2019-06-08T01:56:03.322Z,98259.83
2019-06-08T01:58:33.567Z,98261.29
2019-06-08T02:01:03.952Z,98272.45
2019-06-08T02:03:34.809Z,98280.03
2019-06-08T02:06:05.440Z,98266.72
2019-06-08T02:08:35.702Z,98259.33
2019-06-08T02:11:06.457Z,98271.33
2019-06-08T02:13:36.686Z,98280.03
2019-06-08T02:16:06.946Z,98285.78
2019-06-08T02:18:49.896Z,98285.28
2019-06-08T02:21:09.079Z,98284.80
2019-06-08T02:23:39.743Z,98296.48
2019-06-08T02:26:10.020Z,98306.69
2019-06-08T02:28:40.236Z,98304.05
2019-06-08T02:31:10.541Z,98302.88
2019-06-08T02:33:42.469Z,98297.30
2019-06-08T02:36:12.691Z,98293.84
2019-06-08T02:38:42.887Z,98295.08
2019-06-08T02:41:13.103Z,98307.56
2019-06-08T02:43:43.679Z,98305.92
2019-06-08T02:46:13.904Z,98304.67
2019-06-08T02:49:02.731Z,98312.08
2019-06-08T02:51:16.214Z,98323.75
2019-06-08T02:53:47.173Z,98327.86
2019-06-08T02:56:18.700Z,98322.09
2019-06-08T02:58:51.344Z,98321.78
2019-06-08T03:01:23.095Z,98313.89
2019-06-08T03:03:55.237Z,98314.25
2019-06-08T03:06:30.286Z,98313.42
2019-06-08T03:09:05.459Z,98318.00
2019-06-08T03:11:36.970Z,98320.79
2019-06-08T03:14:07.432Z,98321.45
2019-06-08T03:16:39.019Z,98335.42
2019-06-08T03:19:21.950Z,98346.27
2019-06-08T03:21:42.451Z,98352.36
2019-06-08T03:24:12.852Z,98351.05
2019-06-08T03:26:44.213Z,98346.47
2019-06-08T03:29:14.540Z,98351.25
2019-06-08T03:31:54.656Z,98363.24
2019-06-08T03:34:16.730Z,98389.89
2019-06-08T03:36:55.146Z,98384.97
2019-06-08T03:39:18.861Z,98384.66
2019-06-08T03:41:49.072Z,98381.88
2019-06-08T03:44:19.282Z,98392.55
2019-06-08T03:46:49.505Z,98397.77
2019-06-08T03:49:37.147Z,98397.09
2019-06-08T03:51:51.612Z,98404.83
2019-06-08T03:54:22.981Z,98390.36
2019-06-08T03:56:53.194Z,98392.00
2019-06-08T03:59:23.426Z,98398.92
2019-06-08T04:01:53.620Z,98390.88
2019-06-08T04:04:23.865Z,98385.13
2019-06-08T04:06:54.086Z,98378.87
2019-06-08T04:09:24.282Z,98390.55
2019-06-08T04:11:54.474Z,98393.84
2019-06-08T04:14:24.688Z,98394.70
2019-06-08T04:16:54.996Z,98407.52
2019-06-08T04:19:25.232Z,98408.19
2019-06-08T04:21:55.424Z,98409.28
2019-06-08T04:24:25.654Z,98416.98
2019-06-08T04:26:55.849Z,98431.26
2019-06-08T04:29:26.057Z,98438.27
2019-06-08T04:31:56.260Z,98440.70
2019-06-08T04:34:26.489Z,98436.92
2019-06-08T04:36:56.698Z,98439.41
2019-06-08T04:39:26.947Z,98453.97
2019-06-08T04:41:57.140Z,98457.17
2019-06-08T04:44:27.380Z,98477.81
2019-06-08T04:46:57.659Z,98480.30
2019-06-08T04:49:27.894Z,98483.02
2019-06-08T04:51:58.080Z,98491.75
2019-06-08T04:54:28.305Z,98492.23
2019-06-08T04:56:58.517Z,98502.00
2019-06-08T04:59:28.697Z,98510.84
2019-06-08T05:01:58.900Z,98512.66
2019-06-08T05:04:29.126Z,98515.13
2019-06-08T05:06:59.334Z,98512.66
2019-06-08T05:09:29.627Z,98501.83
2019-06-08T05:11:59.815Z,98502.55
2019-06-08T05:14:30.051Z,98510.80
2019-06-08T05:17:00.217Z,98511.31
2019-06-08T05:19:30.488Z,98509.85
2019-06-08T05:22:00.730Z,98509.59
2019-06-08T05:24:30.926Z,98516.43
2019-06-08T05:27:01.156Z,98520.73
2019-06-08T05:29:31.357Z,98520.08
2019-06-08T05:32:01.584Z,98514.39
2019-06-08T05:34:31.808Z,98531.56
2019-06-08T05:37:02.022Z,98535.59
2019-06-08T05:39:32.251Z,98549.55
2019-06-08T05:42:02.488Z,98552.44
2019-06-08T05:44:34.435Z,98558.00
2019-06-08T05:47:04.725Z,98565.72
2019-06-08T05:49:34.955Z,98564.48
2019-06-08T05:52:05.734Z,98569.91
2019-06-08T05:54:35.931Z,98580.67
2019-06-08T05:57:06.265Z,98587.90
2019-06-08T05:59:36.451Z,98589.61
2019-06-08T06:02:06.868Z,98583.85
2019-06-08T06:04:37.087Z,98582.41
2019-06-08T06:07:07.308Z,98569.84
2019-06-08T06:09:37.516Z,98565.30
2019-06-08T06:12:07.765Z,98586.53
2019-06-08T06:14:37.960Z,98595.91
2019-06-08T06:17:08.175Z,98599.36
2019-06-08T06:19:38.399Z,98601.15
2019-06-08T06:22:08.594Z,98607.67
2019-06-08T06:24:38.810Z,98601.89
2019-06-08T06:27:09.018Z,98597.72
2019-06-08T06:29:39.263Z,98613.08
2019-06-08T06:32:09.528Z,98619.84
2019-06-08T06:34:39.720Z,98621.76
2019-06-08T06:37:09.926Z,98630.09
2019-06-08T06:39:40.232Z,98630.80
2019-06-08T06:42:10.456Z,98616.18
2019-06-08T06:44:42.102Z,98612.89
2019-06-08T06:47:12.609Z,98616.17
2019-06-08T06:49:44.410Z,98622.59
2019-06-08T06:52:14.814Z,98629.98
2019-06-08T06:54:45.018Z,98626.25
2019-06-08T06:57:15.241Z,98626.58
2019-06-08T06:59:45.710Z,98629.45
2019-06-08T07:02:16.823Z,98621.11
2019-06-08T07:04:48.208Z,98632.53
2019-06-08T07:07:18.567Z,98629.83
2019-06-08T07:09:48.792Z,98637.15
2019-06-08T07:12:18.997Z,98643.48
2019-06-08T07:14:49.223Z,98648.69
2019-06-08T07:17:19.453Z,98655.79
2019-06-08T07:19:50.433Z,98658.70
2019-06-08T07:22:20.840Z,98657.94
2019-06-08T07:24:52.383Z,98660.05
2019-06-08T07:27:23.095Z,98660.13
2019-06-08T07:29:53.310Z,98669.93
2019-06-08T07:32:23.535Z,98669.64
2019-06-08T07:34:55.161Z,98671.81
2019-06-08T07:37:25.531Z,98662.66
2019-06-08T07:39:56.224Z,98660.35
2019-06-08T07:42:26.649Z,98666.94
2019-06-08T07:44:56.954Z,98669.23
2019-06-08T07:47:27.171Z,98669.06
2019-06-08T07:49:57.383Z,98674.83
2019-06-08T07:52:27.581Z,98673.58
2019-06-08T07:54:58.581Z,98680.92
2019-06-08T07:57:28.901Z,98675.66
2019-06-08T08:00:00.144Z,98680.27
2019-06-08T08:02:30.528Z,98685.73
2019-06-08T08:05:00.863Z,98678.20
2019-06-08T08:07:31.097Z,98692.59
2019-06-08T08:10:01.318Z,98694.41
2019-06-08T08:12:31.507Z,98691.14
2019-06-08T08:15:01.737Z,98691.55
2019-06-08T08:17:34.405Z,98701.01
2019-06-08T08:20:06.086Z,98707.61
2019-06-08T08:22:38.195Z,98706.32
2019-06-08T08:25:09.695Z,98695.25
2019-06-08T08:27:39.968Z,98696.27
2019-06-08T08:30:10.887Z,98707.42
2019-06-08T08:32:41.188Z,98695.77
2019-06-08T08:35:12.439Z,98684.02
2019-06-08T08:37:42.673Z,98680.06
2019-06-08T08:40:13.402Z,98687.80
2019-06-08T08:42:43.733Z,98682.50
2019-06-08T08:45:15.043Z,98683.91
2019-06-08T08:47:45.377Z,98684.69
2019-06-08T08:50:18.243Z,98676.40
2019-06-08T08:52:48.078Z,98694.32
2019-06-08T08:55:20.584Z,98689.84
2019-06-08T08:57:51.710Z,98702.94
2019-06-08T09:00:24.985Z,98696.36
2019-06-08T09:03:19.040Z,98687.88
2019-06-08T09:05:28.112Z,98690.20
2019-06-08T09:08:00.836Z,98688.56
2019-06-08T09:10:30.702Z,98705.36
2019-06-08T09:13:04.415Z,98697.05
2019-06-08T09:15:33.034Z,98701.66
2019-06-08T09:18:03.874Z,98704.09
2019-06-08T09:20:34.352Z,98706.07
2019-06-08T09:23:14.675Z,98703.11
2019-06-08T09:25:37.440Z,98710.12
2019-06-08T09:28:08.666Z,98710.59
2019-06-08T09:30:38.899Z,98707.16
2019-06-08T09:33:09.248Z,98710.18
2019-06-08T09:35:39.497Z,98708.16
2019-06-08T09:38:11.036Z,98717.48
2019-06-08T09:40:41.313Z,98713.13
2019-06-08T09:43:13.242Z,98715.55
2019-06-08T09:45:43.441Z,98716.81
2019-06-08T09:48:13.667Z,98726.23
2019-06-08T09:50:43.901Z,98718.88
2019-06-08T09:53:23.798Z,98716.53
2019-06-08T09:55:48.161Z,98714.95
2019-06-08T09:58:18.318Z,98717.67
2019-06-08T10:00:49.006Z,98713.95
2019-06-08T10:03:19.398Z,98716.69
2019-06-08T10:05:49.682Z,98718.03
2019-06-08T10:08:20.731Z,98725.97
2019-06-08T10:10:51.233Z,98744.03
2019-06-08T10:13:21.453Z,98717.58
2019-06-08T10:15:51.833Z,98713.31
2019-06-08T10:18:23.171Z,98709.34
2019-06-08T10:20:54.692Z,98719.80
2019-06-08T10:23:33.410Z,98718.78
2019-06-08T10:25:59.575Z,98716.31
2019-06-08T10:28:29.184Z,98715.66
2019-06-08T10:31:01.173Z,98722.27
2019-06-08T10:33:31.305Z,98719.12
2019-06-08T10:36:03.120Z,98718.45
2019-06-08T10:38:33.484Z,98710.97
2019-06-08T10:41:09.220Z,98714.42
2019-06-08T10:43:38.313Z,98720.20
2019-06-08T10:46:14.742Z,98712.69
2019-06-08T10:48:39.694Z,98697.37
2019-06-08T10:51:12.785Z,98703.59
2019-06-08T10:53:49.149Z,98694.84
2019-06-08T10:56:13.972Z,98705.79
2019-06-08T10:58:44.232Z,98709.97
2019-06-08T11:01:14.536Z,98707.73
2019-06-08T11:03:44.786Z,98712.60
2019-06-08T11:06:15.002Z,98706.34
2019-06-08T11:08:45.200Z,98713.16
2019-06-08T11:11:19.501Z,98711.73
2019-06-08T11:13:50.378Z,98716.39
2019-06-08T11:16:19.992Z,98706.63
2019-06-08T11:18:51.196Z,98699.67
2019-06-08T11:21:21.498Z,98696.98
2019-06-08T11:24:05.469Z,98695.33
2019-06-08T11:26:24.438Z,98704.30
2019-06-08T11:28:55.114Z,98696.03
2019-06-08T11:31:28.175Z,98686.94
2019-06-08T11:33:58.933Z,98690.59
2019-06-08T11:36:29.175Z,98691.00
2019-06-08T11:39:00.497Z,98688.89
2019-06-08T11:41:31.415Z,98684.30
2019-06-08T11:44:03.450Z,98681.65
2019-06-08T11:46:33.622Z,98684.66
2019-06-08T11:49:04.921Z,98687.80
2019-06-08T11:51:37.857Z,98682.67
2019-06-08T11:54:25.464Z,98676.88
2019-06-08T11:56:40.779Z,98670.97
2019-06-08T11:59:14.466Z,98674.27
2019-06-08T12:01:44.847Z,98670.69
2019-06-08T12:04:15.082Z,98674.62
2019-06-08T12:06:45.332Z,98683.77
2019-06-08T12:09:15.544Z,98676.81
2019-06-08T12:11:48.042Z,98673.84
2019-06-08T12:14:18.390Z,98673.97
2019-06-08T12:16:48.750Z,98674.97
2019-06-08T12:19:20.864Z,98689.55
2019-06-08T12:21:50.925Z,98673.50
2019-06-08T12:24:21.327Z,98670.02
2019-06-08T12:26:57.740Z,98664.88
2019-06-08T12:29:23.503Z,98657.73
2019-06-08T12:31:53.750Z,98661.19
2019-06-08T12:34:24.038Z,98653.74
2019-06-08T12:36:54.273Z,98654.57
2019-06-08T12:39:24.493Z,98658.03
2019-06-08T12:41:55.043Z,98655.72
2019-06-08T12:44:26.773Z,98655.84
2019-06-08T12:46:58.579Z,98653.19
2019-06-08T12:49:29.140Z,98660.16
2019-06-08T12:51:59.344Z,98654.03
2019-06-08T12:54:29.578Z,98650.08
2019-06-08T12:57:00.833Z,98656.02
2019-06-08T12:59:31.248Z,98651.55
2019-06-08T13:02:01.467Z,98654.02
2019-06-08T13:04:31.808Z,98658.85
2019-06-08T13:07:02.037Z,98658.63
2019-06-08T13:09:32.292Z,98649.36
2019-06-08T13:12:02.575Z,98655.64
2019-06-08T13:14:32.951Z,98660.23
2019-06-08T13:17:03.159Z,98652.97
2019-06-08T13:19:33.590Z,98657.26
2019-06-08T13:22:03.810Z,98651.28
2019-06-08T13:24:34.021Z,98646.12
2019-06-08T13:27:04.461Z,98656.05
2019-06-08T13:29:34.728Z,98662.14
2019-06-08T13:32:07.685Z,98660.12
2019-06-08T13:34:38.782Z,98659.63
2019-06-08T13:37:10.525Z,98651.66
2019-06-08T13:39:40.920Z,98653.50
2019-06-08T13:42:11.316Z,98645.69
2019-06-08T13:44:41.567Z,98646.98
2019-06-08T13:47:12.593Z,98659.02
2019-06-08T13:49:43.280Z,98648.02
2019-06-08T13:52:13.711Z,98649.06
2019-06-08T13:54:44.114Z,98655.47
2019-06-08T13:57:15.009Z,98658.27
2019-06-08T13:59:45.320Z,98649.52
2019-06-08T14:02:18.430Z,98642.81
2019-06-08T14:04:49.158Z,98640.75
2019-06-08T14:07:24.515Z,98633.19
2019-06-08T14:09:52.072Z,98626.51
2019-06-08T14:12:24.676Z,98632.39
2019-06-08T14:14:55.391Z,98628.73
2019-06-08T14:17:27.076Z,98626.41
2019-06-08T14:19:59.298Z,98630.34
2019-06-08T14:22:30.395Z,98638.50
2019-06-08T14:25:00.748Z,98627.77
2019-06-08T14:27:32.945Z,98622.42
2019-06-08T14:30:04.005Z,98622.06
2019-06-08T14:32:34.427Z,98634.55
2019-06-08T14:35:04.782Z,98633.32
2019-06-08T14:37:35.004Z,98631.05
2019-06-08T14:40:08.314Z,98622.30
2019-06-08T14:42:38.729Z,98622.33
2019-06-08T14:45:10.893Z,98630.58
2019-06-08T14:47:41.274Z,98621.91
2019-06-08T14:50:11.610Z,98628.61
2019-06-08T14:52:41.914Z,98621.88
2019-06-08T14:55:12.155Z,98623.59
2019-06-08T14:57:42.463Z,98613.95
2019-06-08T15:00:15.181Z,98615.29
2019-06-08T15:02:49.693Z,98617.76
2019-06-08T15:05:19.462Z,98622.58
2019-06-08T15:07:49.296Z,98617.31
2019-06-08T15:10:21.473Z,98613.78
2019-06-08T15:12:53.611Z,98613.20
2019-06-08T15:15:23.712Z,98602.19
2019-06-08T15:17:53.927Z,98605.14
2019-06-08T15:20:24.155Z,98598.94
2019-06-08T15:22:54.374Z,98593.19
2019-06-08T15:25:24.757Z,98596.30
2019-06-08T15:27:54.946Z,98592.38
2019-06-08T15:30:25.245Z,98595.64
2019-06-08T15:32:55.440Z,98588.74
2019-06-08T15:35:25.642Z,98586.89
2019-06-08T15:37:58.241Z,98588.96
2019-06-08T15:40:27.931Z,98584.50
2019-06-08T15:42:58.650Z,98577.20
2019-06-08T15:45:32.186Z,98567.42
2019-06-08T15:48:00.908Z,98570.48
2019-06-08T15:50:31.110Z,98563.77
2019-06-08T15:53:01.359Z,98558.23
2019-06-08T15:55:33.448Z,98551.95
2019-06-08T15:58:03.511Z,98555.52
2019-06-08T16:00:34.501Z,98555.70
2019-06-08T16:03:05.227Z,98560.95
2019-06-08T16:05:35.577Z,98554.37
2019-06-08T16:08:05.795Z,98564.31
2019-06-08T16:10:36.018Z,98553.69
2019-06-08T16:13:06.218Z,98555.83
2019-06-08T16:15:36.460Z,98558.73
2019-06-08T16:18:06.680Z,98559.05
2019-06-08T16:20:36.899Z,98562.86
2019-06-08T16:23:07.119Z,98561.61
2019-06-08T16:25:38.879Z,98559.20
2019-06-08T16:28:09.346Z,98555.09
2019-06-08T16:30:39.608Z,98550.19
2019-06-08T16:33:09.807Z,98554.92
2019-06-08T16:35:40.112Z,98552.30
2019-06-08T16:38:10.346Z,98549.50
2019-06-08T16:40:40.566Z,98555.30
2019-06-08T16:43:10.815Z,98559.59
2019-06-08T16:45:41.120Z,98555.37
2019-06-08T16:48:11.409Z,98549.95
2019-06-08T16:50:41.659Z,98541.11
2019-06-08T16:53:11.874Z,98554.13
2019-06-08T16:55:42.096Z,98554.80
2019-06-08T16:58:12.307Z,98552.23
2019-06-08T17:00:42.713Z,98556.81
2019-06-08T17:03:12.916Z,98556.44
2019-06-08T17:05:43.146Z,98555.44
2019-06-08T17:08:13.353Z,98553.30
2019-06-08T17:10:43.585Z,98559.52
2019-06-08T17:13:13.806Z,98558.44
2019-06-08T17:15:44.043Z,98549.18
2019-06-08T17:18:14.266Z,98555.78
2019-06-08T17:20:44.576Z,98558.66
2019-06-08T17:23:14.787Z,98559.38
2019-06-08T17:25:45.187Z,98562.34
2019-06-08T17:28:15.419Z,98567.66
2019-06-08T17:30:45.719Z,98574.17
2019-06-08T17:33:16.008Z,98569.69
2019-06-08T17:35:46.241Z,98564.31
2019-06-08T17:38:16.492Z,98571.00
2019-06-08T17:40:46.703Z,98572.57
2019-06-08T17:43:17.010Z,98572.45
2019-06-08T17:45:47.357Z,98579.84
2019-06-08T17:48:17.577Z,98577.88
2019-06-08T17:50:47.977Z,98572.89
2019-06-08T17:53:18.244Z,98575.07
2019-06-08T17:55:48.442Z,98574.98
2019-06-08T17:58:21.167Z,98577.05
2019-06-08T18:00:50.604Z,98570.48
2019-06-08T18:03:20.837Z,98570.05
2019-06-08T18:05:51.136Z,98578.91
2019-06-08T18:08:25.170Z,98577.81
2019-06-08T18:10:54.083Z,98581.81
2019-06-08T18:13:24.290Z,98580.72
2019-06-08T18:15:54.495Z,98578.75
2019-06-08T18:18:24.732Z,98583.44
2019-06-08T18:20:54.966Z,98580.82
2019-06-08T18:23:25.166Z,98581.84
2019-06-08T18:25:55.416Z,98582.84
2019-06-08T18:28:27.729Z,98584.70
2019-06-08T18:30:58.214Z,98587.53
2019-06-08T18:33:28.723Z,98587.39
2019-06-08T18:35:58.968Z,98591.06
2019-06-08T18:38:29.194Z,98590.77
2019-06-08T18:40:59.420Z,98585.80
2019-06-08T18:43:29.640Z,98587.30
2019-06-08T18:45:59.884Z,98593.63
2019-06-08T18:48:30.104Z,98592.81
2019-06-08T18:51:00.478Z,98592.67
2019-06-08T18:53:30.756Z,98598.95
2019-06-08T18:56:01.003Z,98600.30
2019-06-08T18:58:31.312Z,98606.73
2019-06-08T19:01:01.567Z,98603.75
2019-06-08T19:03:31.803Z,98608.88
2019-06-08T19:06:02.435Z,98609.88
2019-06-08T19:08:32.917Z,98610.70
2019-06-08T19:11:03.129Z,98617.16
2019-06-08T19:13:34.126Z,98624.26
2019-06-08T19:16:04.414Z,98626.74
2019-06-08T19:18:34.623Z,98631.88
2019-06-08T19:21:04.990Z,98631.52
2019-06-08T19:23:37.475Z,98641.28
2019-06-08T19:26:07.683Z,98645.72
2019-06-08T19:28:44.953Z,98651.14
2019-06-08T19:31:10.360Z,98654.28
2019-06-08T19:33:41.540Z,98656.90
2019-06-08T19:36:11.890Z,98656.56
2019-06-08T19:38:42.738Z,98660.03
2019-06-08T19:41:13.047Z,98664.30
2019-06-08T19:43:44.439Z,98668.26
2019-06-08T19:46:14.983Z,98676.98
2019-06-08T19:48:48.210Z,98678.45
2019-06-08T19:51:17.236Z,98682.91
2019-06-08T19:53:52.972Z,98682.54
2019-06-08T19:56:21.524Z,98687.16
2019-06-08T19:59:01.046Z,98687.98
2019-06-08T20:01:23.884Z,98687.43
2019-06-08T20:03:54.088Z,98690.22
2019-06-08T20:06:24.317Z,98689.01
2019-06-08T20:08:57.312Z,98689.33
2019-06-08T20:11:26.573Z,98691.47
2019-06-08T20:13:57.440Z,98693.56
2019-06-08T20:16:27.949Z,98697.32
2019-06-08T20:18:58.580Z,98698.63
2019-06-08T20:21:34.285Z,98697.11
2019-06-08T20:24:04.506Z,98698.22
2019-06-08T20:26:34.756Z,98695.23
2019-06-08T20:29:13.138Z,98694.72
2019-06-08T20:31:38.569Z,98700.98
2019-06-08T20:34:08.879Z,98704.40
2019-06-08T20:36:39.081Z,98706.51
2019-06-08T20:39:09.732Z,98708.44
2019-06-08T20:41:39.930Z,98714.50
2019-06-08T20:44:10.212Z,98715.56
2019-06-08T20:46:40.494Z,98714.69
2019-06-08T20:49:10.765Z,98717.59
2019-06-08T20:51:40.988Z,98719.53
2019-06-08T20:54:11.201Z,98719.30
2019-06-08T20:56:41.410Z,98717.58
2019-06-08T20:59:24.284Z,98722.01
2019-06-08T21:01:43.683Z,98723.11
2019-06-08T21:04:13.946Z,98720.28
2019-06-08T21:06:44.143Z,98716.45
2019-06-08T21:09:14.432Z,98713.13
2019-06-08T21:11:46.036Z,98716.85
2019-06-08T21:14:17.415Z,98720.13
2019-06-08T21:16:49.258Z,98721.24
2019-06-08T21:19:19.689Z,98719.68
2019-06-08T21:21:51.981Z,98721.31
2019-06-08T21:24:21.846Z,98723.91
2019-06-08T21:26:54.379Z,98725.48
2019-06-08T21:29:26.734Z,98724.41
2019-06-08T21:32:00.322Z,98732.72
2019-06-08T21:34:27.953Z,98733.32
2019-06-08T21:37:00.699Z,98737.89
2019-06-08T21:39:30.094Z,98744.73
2019-06-08T21:42:03.021Z,98748.33
2019-06-08T21:44:32.249Z,98748.78
2019-06-08T21:47:02.461Z,98749.01
2019-06-08T21:49:32.698Z,98746.48
2019-06-08T21:52:02.897Z,98755.17
2019-06-08T21:54:33.124Z,98755.91
2019-06-08T21:57:06.543Z,98763.09
2019-06-08T21:59:37.748Z,98767.42
2019-06-08T22:02:08.739Z,98768.16
2019-06-08T22:04:38.928Z,98766.89
2019-06-08T22:07:09.134Z,98767.80
2019-06-08T22:09:39.355Z,98766.69
2019-06-08T22:12:09.587Z,98770.39
2019-06-08T22:14:39.793Z,98762.95
2019-06-08T22:17:10.052Z,98768.22
2019-06-08T22:19:40.229Z,98773.78
2019-06-08T22:22:10.469Z,98774.05
2019-06-08T22:24:40.655Z,98775.81
2019-06-08T22:27:10.863Z,98774.94
2019-06-08T22:29:41.054Z,98770.41
2019-06-08T22:32:11.295Z,98770.88
2019-06-08T22:34:41.519Z,98766.55
2019-06-08T22:37:11.737Z,98769.62
2019-06-08T22:39:41.977Z,98769.06
2019-06-08T22:42:12.180Z,98771.95
2019-06-08T22:44:42.425Z,98769.90
2019-06-08T22:47:12.645Z,98776.05
2019-06-08T22:49:42.855Z,98783.84
2019-06-08T22:52:13.114Z,98782.72
2019-06-08T22:54:43.299Z,98784.15
2019-06-08T22:57:13.568Z,98784.19
2019-06-08T22:59:43.780Z,98795.73
2019-06-08T23:02:13.988Z,98793.13
2019-06-08T23:04:44.225Z,98789.94
2019-06-08T23:07:26.560Z,98794.38
2019-06-08T23:09:47.853Z,98796.75
2019-06-08T23:12:18.273Z,98800.52
2019-06-08T23:14:48.466Z,98795.55
2019-06-08T23:17:18.760Z,98797.80
2019-06-08T23:19:49.065Z,98796.41
2019-06-08T23:22:19.317Z,98798.37
2019-06-08T23:24:49.548Z,98795.52
2019-06-08T23:27:19.785Z,98800.88
2019-06-08T23:29:50.006Z,98798.58
2019-06-08T23:32:20.259Z,98791.72
2019-06-08T23:34:50.554Z,98796.70
2019-06-08T23:37:20.794Z,98803.16
2019-06-08T23:39:51.018Z,98807.25
2019-06-08T23:42:21.276Z,98803.86
2019-06-08T23:44:51.471Z,98803.85
2019-06-08T23:47:21.709Z,98800.70
2019-06-08T23:49:51.938Z,98803.54
2019-06-08T23:52:22.161Z,98797.42
2019-06-08T23:54:52.431Z,98796.75
2019-06-08T23:57:22.710Z,98799.88
2019-06-08T23:59:52.915Z,98805.50
